Time;durP1;ratioP1;P1;durP2;ratioP2;P2;SDS_P1;SDS_P2;PMS_P1;PMS_P2;Temp;Humidity;BMP_temperature;BMP_pressure;BME280_temperature;BME280_humidity;BME280_pressure;Samples;Min_cycle;Max_cycle;Signal;HPM_P1;HPM_P2
2023/06/11 00:01:40;;;;;;;8.20;7.40;;;;;;;14.71;86.96;97969.95;107165;1275;24905;-83
2023/06/11 00:04:25;;;;;;;8.80;7.90;;;;;;;14.70;87.01;97970.80;107166;1275;22550;-83
2023/06/11 00:06:56;;;;;;;8.70;7.80;;;;;;;14.66;86.97;97970.11;107254;1275;24259;-83
2023/06/11 00:09:25;;;;;;;9.50;8.10;;;;;;;14.63;86.89;97971.08;107343;1275;24176;-83
2023/06/11 00:11:53;;;;;;;8.70;7.80;;;;;;;14.60;87.53;97974.34;107242;1275;24305;-83
2023/06/11 00:14:23;;;;;;;8.70;7.90;;;;;;;14.55;87.31;97974.38;107142;1275;22628;-84
2023/06/11 00:16:51;;;;;;;8.50;7.70;;;;;;;14.53;87.42;97973.85;107147;1275;22524;-82
2023/06/11 00:19:20;;;;;;;9.00;8.20;;;;;;;14.52;87.44;97971.94;107111;1275;26583;-83
2023/06/11 00:21:49;;;;;;;9.10;8.30;;;;;;;14.51;87.51;97973.26;107176;1275;22526;-83
2023/06/11 00:24:17;;;;;;;10.20;9.20;;;;;;;14.48;87.79;97973.73;107181;1275;22524;-83
2023/06/11 00:26:46;;;;;;;10.00;9.00;;;;;;;14.43;87.80;97973.01;107067;1275;24202;-83
2023/06/11 00:29:14;;;;;;;9.50;8.40;;;;;;;14.42;88.05;97968.16;107133;1275;22707;-83
2023/06/11 00:31:42;;;;;;;9.40;8.50;;;;;;;14.43;88.80;97968.83;107104;1275;25262;-83
2023/06/11 00:34:10;;;;;;;9.00;8.10;;;;;;;14.43;88.63;97969.65;107154;1275;24230;-83
2023/06/11 00:36:40;;;;;;;9.60;8.60;;;;;;;14.43;88.40;97972.27;107125;1275;24199;-83
2023/06/11 00:39:10;;;;;;;9.40;8.50;;;;;;;14.42;88.38;97972.63;107167;1275;23927;-83
2023/06/11 00:41:45;;;;;;;11.00;10.00;;;;;;;14.40;88.95;97967.12;107058;1275;22531;-82
2023/06/11 00:44:18;;;;;;;9.80;8.90;;;;;;;14.34;88.55;97967.09;107290;1275;22536;-83
2023/06/11 00:46:47;;;;;;;9.60;8.70;;;;;;;14.31;88.73;97970.30;107199;1275;22804;-83
2023/06/11 00:49:15;;;;;;;10.90;9.50;;;;;;;14.29;88.83;97969.55;107177;1275;24220;-83
2023/06/11 00:51:45;;;;;;;10.20;8.50;;;;;;;14.27;89.32;97968.50;107147;1275;24452;-83
2023/06/11 00:54:16;;;;;;;10.10;9.30;;;;;;;14.24;89.43;97969.59;107192;1275;22596;-83
2023/06/11 00:56:48;;;;;;;12.00;10.80;;;;;;;14.20;89.94;97973.61;107120;1275;22534;-83
2023/06/11 00:59:17;;;;;;;10.30;9.30;;;;;;;14.17;89.98;97975.02;107093;1275;22663;-83
2023/06/11 01:01:59;;;;;;;12.20;10.70;;;;;;;14.15;89.94;97978.02;107054;1275;22520;-83
2023/06/11 01:04:32;;;;;;;10.00;9.10;;;;;;;14.14;90.31;97979.07;107173;1275;22516;-84
2023/06/11 01:07:05;;;;;;;10.80;9.80;;;;;;;14.15;90.26;97975.78;107185;1275;25244;-82
2023/06/11 01:09:33;;;;;;;10.60;9.60;;;;;;;14.15;90.29;97981.09;107204;1275;24508;-84
2023/06/11 01:12:02;;;;;;;10.50;9.60;;;;;;;14.16;90.50;97978.08;107058;1275;22782;-82
2023/06/11 01:14:32;;;;;;;11.50;9.40;;;;;;;14.17;91.00;97980.54;107185;1275;22528;-83
2023/06/11 01:17:06;;;;;;;10.90;9.60;;;;;;;14.17;90.80;97983.21;107054;1275;25390;-85
2023/06/11 01:19:37;;;;;;;11.30;10.30;;;;;;;14.15;91.25;97986.48;107157;1275;24243;-84
2023/06/11 01:22:15;;;;;;;11.10;10.00;;;;;;;14.13;90.87;97986.95;107340;1275;22521;-85
2023/06/11 01:25:11;;;;;;;10.50;9.50;;;;;;;14.13;90.82;97986.52;107317;1275;22517;-84
2023/06/11 01:27:43;;;;;;;10.90;9.90;;;;;;;14.12;90.74;97989.20;107238;1275;22664;-83
2023/06/11 01:30:17;;;;;;;10.80;9.80;;;;;;;14.12;91.36;97989.20;107291;1275;26681;-83
2023/06/11 01:32:55;;;;;;;10.20;9.30;;;;;;;14.12;91.23;97984.32;107284;1275;22529;-84
2023/06/11 01:35:28;;;;;;;11.20;10.20;;;;;;;14.13;91.83;97987.45;107183;1275;25401;-85
2023/06/11 01:37:57;;;;;;;10.80;9.80;;;;;;;14.12;91.91;97987.80;107127;1275;24683;-84
2023/06/11 01:40:48;;;;;;;14.70;10.40;;;;;;;14.09;91.90;97982.26;107237;1275;22644;-87
2023/06/11 01:43:17;;;;;;;11.20;10.20;;;;;;;14.08;91.68;97978.04;107191;1275;22531;-83
2023/06/11 01:45:45;;;;;;;10.60;9.60;;;;;;;14.09;91.78;97978.02;107215;1275;22520;-84
2023/06/11 01:48:13;;;;;;;12.30;11.30;;;;;;;14.10;91.77;97974.80;107138;1275;22629;-84
2023/06/11 01:50:41;;;;;;;11.90;10.00;;;;;;;14.11;92.09;97973.98;106998;1275;22528;-83
2023/06/11 01:53:10;;;;;;;12.00;10.70;;;;;;;14.10;91.80;97974.89;107108;1275;22880;-85
2023/06/11 01:55:39;;;;;;;11.20;10.10;;;;;;;14.12;92.43;97980.91;107065;1275;22518;-84
2023/06/11 01:58:08;;;;;;;11.70;10.50;;;;;;;14.10;92.26;97982.48;107128;1275;22602;-84
2023/06/11 02:00:36;;;;;;;11.50;10.50;;;;;;;14.07;92.60;97984.42;106975;1275;24234;-84
2023/06/11 02:03:05;;;;;;;10.50;9.30;;;;;;;14.03;92.42;97984.64;107103;1275;25357;-84
2023/06/11 02:05:34;;;;;;;11.00;10.00;;;;;;;14.02;92.90;97984.58;107248;1275;23158;-83
2023/06/11 02:08:02;;;;;;;10.80;9.80;;;;;;;14.03;92.96;97985.89;107108;1275;24647;-84
2023/06/11 02:10:30;;;;;;;11.40;9.90;;;;;;;14.04;92.78;97982.36;107146;1275;23909;-85
2023/06/11 02:12:58;;;;;;;11.10;10.00;;;;;;;14.05;92.79;97984.37;107009;1275;22521;-83
2023/06/11 02:15:26;;;;;;;11.40;10.10;;;;;;;14.07;93.66;97984.36;107036;1275;25216;-83
2023/06/11 02:17:54;;;;;;;11.70;10.50;;;;;;;14.05;93.46;97988.17;107026;1266;22525;-83
2023/06/11 02:20:22;;;;;;;11.90;10.80;;;;;;;14.03;93.50;97986.74;107058;1275;24209;-82
2023/06/11 02:22:50;;;;;;;13.20;11.00;;;;;;;14.02;93.78;97988.23;106914;1275;25560;-84
2023/06/11 02:25:19;;;;;;;14.10;10.40;;;;;;;14.02;93.75;97992.64;107166;1275;22607;-83
2023/06/11 02:27:51;;;;;;;11.60;10.60;;;;;;;14.01;93.38;97989.59;107022;1275;22804;-83
2023/06/11 02:30:19;;;;;;;11.60;10.40;;;;;;;14.03;93.51;97990.05;107109;1275;22589;-82
2023/06/11 02:32:47;;;;;;;11.30;10.30;;;;;;;14.06;93.56;97990.90;107153;1269;26509;-83
2023/06/11 02:35:15;;;;;;;10.60;9.60;;;;;;;14.07;93.78;97987.77;107085;1275;22625;-83
2023/06/11 02:37:43;;;;;;;11.70;10.60;;;;;;;14.08;93.66;97991.31;107094;1275;25487;-83
2023/06/11 02:40:12;;;;;;;11.80;10.50;;;;;;;14.11;94.29;97994.37;107107;1275;22742;-82
2023/06/11 02:42:40;;;;;;;11.70;10.50;;;;;;;14.10;94.43;97993.23;107001;1275;22521;-82
2023/06/11 02:45:09;;;;;;;11.70;10.60;;;;;;;14.09;94.11;97998.29;107110;1275;24122;-83
2023/06/11 02:47:37;;;;;;;12.10;10.90;;;;;;;14.09;94.26;97997.31;107076;1275;22586;-82
2023/06/11 02:50:06;;;;;;;12.20;11.00;;;;;;;14.11;94.42;97997.99;107099;1275;22522;-83
2023/06/11 02:52:34;;;;;;;13.30;11.90;;;;;;;14.15;94.36;97999.14;107134;1275;22520;-83
2023/06/11 02:55:02;;;;;;;11.50;10.40;;;;;;;14.18;94.44;97999.38;107097;1275;22722;-83
2023/06/11 02:57:30;;;;;;;11.60;10.40;;;;;;;14.21;95.24;98000.30;107154;1275;25370;-83
2023/06/11 02:59:58;;;;;;;12.30;10.70;;;;;;;14.23;94.87;97994.82;107101;1275;25395;-83
2023/06/11 03:02:26;;;;;;;11.90;10.80;;;;;;;14.29;95.12;97999.08;107106;1275;22538;-83
2023/06/11 03:04:55;;;;;;;12.20;11.00;;;;;;;14.33;95.28;97993.17;107041;1275;22552;-83
2023/06/11 03:07:23;;;;;;;12.20;11.20;;;;;;;14.37;95.52;97999.52;107188;1263;22533;-83
2023/06/11 03:09:51;;;;;;;11.50;10.50;;;;;;;14.40;95.49;98001.36;107078;1275;22555;-83
2023/06/11 03:12:20;;;;;;;12.50;11.20;;;;;;;14.47;96.16;98001.41;106993;1275;26582;-83
2023/06/11 03:14:49;;;;;;;11.90;10.70;;;;;;;14.52;95.64;98007.79;107084;1275;25284;-83
2023/06/11 03:17:18;;;;;;;12.70;11.00;;;;;;;14.58;95.66;98006.56;107011;1275;25314;-83
2023/06/11 03:19:45;;;;;;;11.40;10.40;;;;;;;14.62;95.70;98006.84;107085;1275;23423;-82
2023/06/11 03:22:14;;;;;;;10.90;9.50;;;;;;;14.65;95.95;98006.59;107128;1275;24218;-83
2023/06/11 03:24:42;;;;;;;11.90;10.70;;;;;;;14.68;95.76;98006.64;107335;1262;25458;-82
2023/06/11 03:27:22;;;;;;;11.20;10.20;;;;;;;14.73;96.08;98006.66;107350;1275;24062;-82
2023/06/11 03:29:51;;;;;;;10.60;9.50;;;;;;;14.76;96.42;98009.20;107095;1275;25838;-83
2023/06/11 03:32:19;;;;;;;16.20;9.50;;;;;;;14.80;96.22;98016.40;106985;1275;22792;-84
2023/06/11 03:34:51;;;;;;;12.00;9.50;;;;;;;14.84;96.27;98014.33;107049;1275;22536;-83
2023/06/11 03:37:20;;;;;;;9.70;8.80;;;;;;;14.85;95.95;98021.59;107196;1275;22522;-82
2023/06/11 03:39:50;;;;;;;10.10;9.10;;;;;;;14.86;96.25;98020.87;106983;1275;22597;-82
2023/06/11 03:42:18;;;;;;;10.10;9.00;;;;;;;14.85;96.41;98025.71;107142;1275;22574;-82
2023/06/11 03:44:49;;;;;;;10.30;9.20;;;;;;;14.88;96.03;98028.52;107127;1275;24249;-82
2023/06/11 03:47:17;;;;;;;9.80;8.80;;;;;;;14.91;96.25;98031.98;107228;1275;24394;-82
2023/06/11 03:49:45;;;;;;;9.60;8.60;;;;;;;14.94;96.01;98034.05;107018;1275;22587;-82
2023/06/11 03:52:14;;;;;;;11.40;9.20;;;;;;;14.96;96.09;98032.99;107170;1275;22674;-82
2023/06/11 03:54:42;;;;;;;9.40;8.40;;;;;;;14.95;95.99;98034.11;107151;1275;25335;-82
2023/06/11 03:57:12;;;;;;;9.20;8.30;;;;;;;14.96;95.77;98035.77;106854;1275;22551;-82
2023/06/11 03:59:40;;;;;;;9.40;8.60;;;;;;;14.99;95.67;98036.05;106880;1275;24193;-82
2023/06/11 04:02:08;;;;;;;9.60;8.60;;;;;;;15.05;95.56;98034.88;107040;1266;23151;-83
2023/06/11 04:04:36;;;;;;;8.60;7.80;;;;;;;15.07;95.53;98033.52;107147;1275;22552;-82
2023/06/11 04:07:05;;;;;;;12.00;9.10;;;;;;;15.12;95.36;98036.41;107190;1275;25249;-82
2023/06/11 04:09:33;;;;;;;8.70;7.70;;;;;;;15.16;95.31;98036.52;107043;1275;25350;-82
2023/06/11 04:12:01;;;;;;;8.80;7.90;;;;;;;15.18;95.09;98034.52;107154;1275;23597;-82
2023/06/11 04:14:29;;;;;;;9.50;8.70;;;;;;;15.22;94.89;98037.56;107022;1275;22549;-81
2023/06/11 04:16:58;;;;;;;8.20;7.40;;;;;;;15.29;94.80;98040.63;107140;1275;24299;-81
2023/06/11 04:19:26;;;;;;;8.70;7.70;;;;;;;15.36;94.78;98043.61;107076;1275;22541;-81
2023/06/11 04:21:54;;;;;;;10.20;9.10;;;;;;;15.40;94.45;98043.69;107147;1275;22572;-81
2023/06/11 04:24:23;;;;;;;8.40;7.60;;;;;;;15.42;94.39;98045.20;107112;1275;25272;-81
2023/06/11 04:26:52;;;;;;;9.60;7.80;;;;;;;15.47;94.41;98048.80;106823;1275;22520;-83
2023/06/11 04:29:22;;;;;;;9.30;8.30;;;;;;;15.51;93.98;98049.92;107110;1275;22525;-83
2023/06/11 04:31:52;;;;;;;9.00;8.20;;;;;;;15.53;93.79;98051.80;107065;1275;23934;-82
2023/06/11 04:34:28;;;;;;;8.60;7.60;;;;;;;15.54;93.54;98050.45;107087;1275;22533;-83
2023/06/11 04:36:59;;;;;;;8.20;7.40;;;;;;;15.59;93.70;98051.29;107139;1275;22731;-83
2023/06/11 04:39:28;;;;;;;10.10;9.10;;;;;;;15.68;93.64;98048.86;107094;1275;23899;-83
2023/06/11 04:41:58;;;;;;;10.10;8.20;;;;;;;15.71;92.69;98050.77;107088;1275;25338;-82
2023/06/11 04:44:28;;;;;;;9.50;7.50;;;;;;;15.73;92.78;98048.52;107095;1275;22616;-82
2023/06/11 04:46:58;;;;;;;11.10;8.10;;;;;;;15.76;92.70;98048.18;107138;1275;22569;-82
2023/06/11 04:49:29;;;;;;;9.80;8.50;;;;;;;15.81;92.74;98049.38;107125;1275;23240;-82
2023/06/11 04:51:58;;;;;;;8.50;7.60;;;;;;;15.83;92.48;98048.38;107011;1275;24072;-83
2023/06/11 04:54:27;;;;;;;9.20;8.40;;;;;;;15.83;92.56;98054.45;107488;1275;24407;-83
2023/06/11 04:56:59;;;;;;;9.10;8.20;;;;;;;15.86;92.42;98058.65;107593;1275;22526;-83
2023/06/11 04:59:27;;;;;;;8.70;7.80;;;;;;;15.90;92.46;98061.52;107084;1275;25383;-82
2023/06/11 05:01:55;;;;;;;9.00;8.10;;;;;;;15.95;92.37;98062.70;106939;1277;22898;-82
2023/06/11 05:04:27;;;;;;;10.60;8.60;;;;;;;15.97;92.09;98065.73;106732;1277;22654;-83
2023/06/11 05:06:57;;;;;;;10.80;8.90;;;;;;;15.96;91.99;98069.13;106858;1277;25360;-82
2023/06/11 05:09:27;;;;;;;10.50;8.80;;;;;;;15.97;91.89;98070.70;106964;1277;24245;-82
2023/06/11 05:11:55;;;;;;;10.20;9.10;;;;;;;15.97;91.70;98069.16;106959;1277;22577;-82
2023/06/11 05:14:23;;;;;;;10.90;8.60;;;;;;;16.01;91.83;98076.29;106688;1277;163324;-82
2023/06/11 05:16:52;;;;;;;10.00;9.10;;;;;;;16.07;91.75;98073.98;106843;1277;22630;-83
2023/06/11 05:19:21;;;;;;;9.70;8.80;;;;;;;16.10;91.42;98078.20;106808;1277;24097;-82
2023/06/11 05:21:49;;;;;;;10.70;9.10;;;;;;;16.07;91.04;98077.95;106848;1256;24260;-83
2023/06/11 05:24:21;;;;;;;10.10;9.20;;;;;;;16.03;90.87;98076.91;106822;1277;25343;-82
2023/06/11 05:26:55;;;;;;;9.90;8.80;;;;;;;15.95;90.66;98080.52;106903;1277;22527;-82
2023/06/11 05:29:25;;;;;;;10.40;9.20;;;;;;;15.94;91.01;98074.00;106822;1277;22544;-82
2023/06/11 05:31:56;;;;;;;10.40;8.40;;;;;;;15.98;91.10;98076.58;106944;1277;22639;-83
2023/06/11 05:34:25;;;;;;;11.30;9.10;;;;;;;16.03;91.09;98073.98;106944;1276;22553;-82
2023/06/11 05:36:58;;;;;;;10.90;9.60;;;;;;;16.09;90.85;98073.44;106843;1277;22519;-82
2023/06/11 05:39:26;;;;;;;9.40;8.50;;;;;;;16.09;90.79;98076.41;106760;1277;22478;-83
2023/06/11 05:41:55;;;;;;;9.80;8.80;;;;;;;16.16;90.47;98077.56;106987;1277;22550;-82
2023/06/11 05:44:23;;;;;;;9.00;8.20;;;;;;;16.20;90.36;98079.21;107075;1276;22640;-83
2023/06/11 05:46:52;;;;;;;9.90;8.70;;;;;;;16.26;90.46;98085.80;106891;1277;25249;-82
2023/06/11 05:49:21;;;;;;;10.00;9.00;;;;;;;16.37;90.63;98087.98;106866;1277;22655;-82
2023/06/11 05:51:50;;;;;;;10.70;9.60;;;;;;;16.45;90.44;98092.92;106877;1277;22736;-82
2023/06/11 05:54:18;;;;;;;9.20;8.30;;;;;;;16.50;90.34;98096.69;106834;1277;22545;-82
2023/06/11 05:56:46;;;;;;;11.50;9.20;;;;;;;16.57;90.33;98095.81;106867;1277;25417;-84
2023/06/11 05:59:15;;;;;;;13.40;10.20;;;;;;;16.65;89.83;98097.85;107071;1277;25211;-83
2023/06/11 06:01:47;;;;;;;8.90;8.00;;;;;;;16.71;89.13;98095.15;107393;1275;22588;-82
2023/06/11 06:04:19;;;;;;;8.80;8.00;;;;;;;16.77;89.08;98094.11;107445;1275;25281;-83
2023/06/11 06:06:48;;;;;;;9.10;8.10;;;;;;;16.85;89.35;98096.97;107287;1275;24219;-83
2023/06/11 06:09:16;;;;;;;10.60;8.00;;;;;;;16.93;89.03;98097.58;107152;1275;22641;-83
2023/06/11 06:11:45;;;;;;;9.00;8.00;;;;;;;17.09;89.34;98100.93;107187;1275;23265;-83
2023/06/11 06:14:13;;;;;;;10.30;8.50;;;;;;;17.18;87.97;98101.33;107234;1275;24220;-82
2023/06/11 06:16:41;;;;;;;10.40;8.70;;;;;;;17.21;87.67;98108.11;107077;1275;26503;-82
2023/06/11 06:19:12;;;;;;;9.50;8.20;;;;;;;17.28;87.61;98105.37;107133;1275;24849;-82
2023/06/11 06:21:41;;;;;;;9.70;7.90;;;;;;;17.39;87.44;98107.22;107114;1275;22541;-82
2023/06/11 06:24:11;;;;;;;8.90;8.10;;;;;;;17.52;86.07;98109.14;106981;1275;22547;-82
2023/06/11 06:26:40;;;;;;;10.60;8.20;;;;;;;17.67;85.61;98106.65;107054;1275;22536;-82
2023/06/11 06:29:12;;;;;;;8.80;7.50;;;;;;;17.82;84.44;98107.08;107024;1275;23896;-81
2023/06/11 06:31:41;;;;;;;8.00;7.20;;;;;;;17.93;84.85;98110.55;107146;1275;22528;-81
2023/06/11 06:34:10;;;;;;;11.90;8.40;;;;;;;17.95;83.97;98113.80;107130;1275;25376;-82
2023/06/11 06:36:38;;;;;;;9.10;7.80;;;;;;;17.88;83.67;98114.30;107022;1275;22669;-81
2023/06/11 06:39:07;;;;;;;11.00;7.20;;;;;;;17.83;83.40;98114.84;107217;1275;22519;-82
2023/06/11 06:41:37;;;;;;;9.20;6.90;;;;;;;17.92;83.89;98113.86;107071;1275;25338;-82
2023/06/11 06:44:09;;;;;;;7.70;6.90;;;;;;;18.03;83.74;98114.07;107152;1275;25245;-83
2023/06/11 06:46:37;;;;;;;10.10;7.10;;;;;;;18.04;82.26;98111.77;107091;1275;22520;-82
2023/06/11 06:49:05;;;;;;;9.70;6.60;;;;;;;18.00;82.15;98112.95;107072;1275;22561;-81
2023/06/11 06:51:36;;;;;;;9.60;7.50;;;;;;;18.02;82.13;98112.32;107123;1275;25319;-81
2023/06/11 06:54:05;;;;;;;8.10;6.70;;;;;;;18.10;81.26;98113.66;107128;1275;22521;-83
2023/06/11 06:56:35;;;;;;;9.50;7.20;;;;;;;18.16;80.65;98113.69;107039;1275;22533;-82
2023/06/11 06:59:04;;;;;;;10.10;9.20;;;;;;;18.14;79.62;98110.96;107064;1275;22591;-82
2023/06/11 07:01:34;;;;;;;10.30;7.50;;;;;;;18.23;79.54;98115.39;107113;1275;25214;-82
2023/06/11 07:04:03;;;;;;;10.10;6.50;;;;;;;18.28;80.24;98115.36;107219;1275;23601;-82
2023/06/11 07:06:32;;;;;;;9.30;6.90;;;;;;;18.37;80.48;98117.10;107681;1275;25268;-83
2023/06/11 07:09:03;;;;;;;9.00;6.10;;;;;;;18.41;80.23;98117.06;107204;1275;22587;-82
2023/06/11 07:11:31;;;;;;;10.10;7.70;;;;;;;18.56;79.93;98120.65;107077;1275;22994;-82
2023/06/11 07:14:00;;;;;;;11.80;7.40;;;;;;;18.76;78.75;98117.01;106907;1275;23306;-82
2023/06/11 07:16:29;;;;;;;8.80;6.70;;;;;;;18.81;78.97;98115.05;107053;1274;22599;-82
2023/06/11 07:19:01;;;;;;;8.20;7.10;;;;;;;18.85;78.74;98121.64;107050;1275;24180;-82
2023/06/11 07:21:29;;;;;;;10.00;6.60;;;;;;;18.79;77.39;98125.27;107064;1275;23961;-82
2023/06/11 07:23:58;;;;;;;7.90;6.50;;;;;;;18.66;76.76;98124.91;107053;1275;24242;-83
2023/06/11 07:26:27;;;;;;;8.50;6.40;;;;;;;18.52;76.38;98125.18;106984;1275;22516;-83
2023/06/11 07:28:56;;;;;;;8.90;6.60;;;;;;;18.54;75.57;98119.42;106985;1275;22514;-83
2023/06/11 07:31:26;;;;;;;11.30;6.50;;;;;;;18.68;75.35;98120.27;107066;1275;25262;-83
2023/06/11 07:33:54;;;;;;;12.90;6.80;;;;;;;18.96;76.52;98121.39;106966;1275;23271;-83
2023/06/11 07:36:23;;;;;;;8.80;6.50;;;;;;;19.24;75.97;98120.35;107142;1275;22527;-83
2023/06/11 07:38:51;;;;;;;11.80;6.80;;;;;;;19.38;75.99;98122.58;107072;1275;22525;-83
2023/06/11 07:41:20;;;;;;;9.10;7.30;;;;;;;19.66;75.95;98120.88;107112;1275;22580;-83
2023/06/11 07:43:50;;;;;;;8.20;6.70;;;;;;;19.77;74.62;98123.74;107077;1275;24190;-83
2023/06/11 07:46:18;;;;;;;7.70;6.40;;;;;;;19.75;73.11;98126.11;106999;1253;24197;-83
2023/06/11 07:48:48;;;;;;;9.00;6.30;;;;;;;19.54;73.33;98129.92;107004;1275;22529;-83
2023/06/11 07:51:19;;;;;;;10.90;6.80;;;;;;;19.43;73.26;98126.70;107110;1275;25218;-83
2023/06/11 07:53:50;;;;;;;6.90;6.10;;;;;;;19.35;72.58;98130.86;107145;1275;22524;-82
2023/06/11 07:56:19;;;;;;;8.30;6.70;;;;;;;19.38;72.86;98128.13;107102;1275;23740;-82
2023/06/11 07:58:47;;;;;;;9.20;6.60;;;;;;;19.55;71.87;98129.49;107089;1275;24034;-82
2023/06/11 08:01:15;;;;;;;9.60;6.80;;;;;;;19.74;71.76;98127.33;107064;1275;22609;-83
2023/06/11 08:03:43;;;;;;;11.50;6.70;;;;;;;19.80;71.73;98130.45;106973;1275;25403;-83
2023/06/11 08:06:11;;;;;;;10.00;7.00;;;;;;;19.76;70.90;98134.58;107084;1275;22637;-83
2023/06/11 08:08:39;;;;;;;9.90;6.70;;;;;;;19.63;70.40;98137.27;107057;1275;24257;-83
2023/06/11 08:11:08;;;;;;;11.20;6.70;;;;;;;19.49;71.79;98144.82;107107;1275;22620;-83
2023/06/11 08:13:38;;;;;;;10.50;6.00;;;;;;;19.42;70.58;98140.42;107244;1275;24232;-83
2023/06/11 08:16:07;;;;;;;11.50;6.80;;;;;;;19.35;70.83;98138.12;107020;1275;22517;-83
2023/06/11 08:18:35;;;;;;;8.70;7.10;;;;;;;19.43;70.42;98135.13;107065;1275;22520;-83
2023/06/11 08:21:05;;;;;;;8.60;6.20;;;;;;;19.55;69.45;98137.15;106997;1275;23936;-82
2023/06/11 08:23:37;;;;;;;7.30;6.20;;;;;;;19.43;68.44;98135.66;107038;1275;22569;-82
2023/06/11 08:26:06;;;;;;;12.40;6.10;;;;;;;19.28;68.18;98134.43;107090;1275;22594;-82
2023/06/11 08:28:36;;;;;;;12.00;6.70;;;;;;;19.22;69.01;98139.58;107086;1275;24307;-83
2023/06/11 08:31:05;;;;;;;8.10;6.30;;;;;;;19.27;69.15;98135.19;107120;1275;23587;-82
2023/06/11 08:33:33;;;;;;;8.50;7.40;;;;;;;19.23;67.93;98132.56;107063;1260;24255;-83
2023/06/11 08:36:03;;;;;;;8.10;6.70;;;;;;;19.12;68.27;98134.54;107092;1275;22546;-83
2023/06/11 08:38:31;;;;;;;14.20;7.10;;;;;;;19.09;68.19;98130.41;107081;1275;22523;-83
2023/06/11 08:40:59;;;;;;;7.50;6.50;;;;;;;19.05;68.68;98132.10;107018;1275;22520;-83
2023/06/11 08:43:27;;;;;;;8.10;6.40;;;;;;;19.05;68.48;98130.67;107133;1275;24432;-82
2023/06/11 08:45:55;;;;;;;11.00;6.50;;;;;;;19.03;68.39;98134.85;107045;1275;22533;-82
2023/06/11 08:48:28;;;;;;;9.10;6.50;;;;;;;19.02;68.94;98133.17;107085;1272;22521;-82
2023/06/11 08:51:01;;;;;;;8.00;6.00;;;;;;;18.98;68.70;98134.02;107100;1275;22692;-82
2023/06/11 08:53:30;;;;;;;8.50;6.90;;;;;;;18.92;69.47;98132.75;107095;1275;26498;-82
2023/06/11 08:55:58;;;;;;;6.90;5.80;;;;;;;19.04;69.30;98128.58;107068;1275;25319;-82
2023/06/11 08:58:30;;;;;;;7.30;6.50;;;;;;;19.12;69.59;98129.08;106952;1275;22521;-83
2023/06/11 09:00:58;;;;;;;10.00;6.50;;;;;;;19.36;69.37;98125.27;107040;1275;23057;-82
2023/06/11 09:03:26;;;;;;;9.30;5.70;;;;;;;19.50;68.84;98124.23;107064;1275;22520;-82
2023/06/11 09:05:55;;;;;;;11.10;6.10;;;;;;;19.67;69.07;98127.30;107437;1256;22546;-82
2023/06/11 09:08:23;;;;;;;9.50;6.50;;;;;;;19.99;68.67;98129.65;107867;1275;22518;-82
2023/06/11 09:10:51;;;;;;;10.50;5.70;;;;;;;20.26;69.02;98127.37;107082;1275;22529;-83
2023/06/11 09:13:24;;;;;;;9.20;6.40;;;;;;;20.50;67.53;98117.91;106994;1275;22632;-83
2023/06/11 09:15:57;;;;;;;9.20;5.70;;;;;;;20.71;67.68;98119.52;107061;1275;22626;-84
2023/06/11 09:18:27;;;;;;;9.30;5.40;;;;;;;20.97;66.01;98118.08;107089;1275;22521;-82
2023/06/11 09:20:57;;;;;;;8.00;5.20;;;;;;;21.21;64.65;98121.11;106982;1275;22641;-82
2023/06/11 09:23:33;;;;;;;10.30;5.70;;;;;;;21.51;65.24;98120.10;107081;1275;22521;-82
2023/06/11 09:26:02;;;;;;;9.00;5.60;;;;;;;21.86;64.80;98116.11;107079;1275;25272;-83
2023/06/11 09:28:36;;;;;;;8.80;4.90;;;;;;;22.07;63.62;98111.59;107083;1275;22536;-82
2023/06/11 09:31:04;;;;;;;7.80;4.80;;;;;;;22.31;64.36;98106.95;107103;1263;22542;-82
2023/06/11 09:33:33;;;;;;;7.30;4.80;;;;;;;22.60;63.17;98105.13;107054;1275;22644;-83
2023/06/11 09:36:01;;;;;;;10.20;4.80;;;;;;;22.91;62.81;98103.70;107117;1275;22631;-83
2023/06/11 09:38:34;;;;;;;9.30;5.60;;;;;;;23.18;61.54;98104.77;107104;1275;26634;-83
2023/06/11 09:41:06;;;;;;;8.90;4.90;;;;;;;23.19;59.41;98106.60;107116;1275;24221;-82
2023/06/11 09:43:34;;;;;;;9.50;5.50;;;;;;;23.07;58.97;98113.86;107140;1275;22643;-83
2023/06/11 09:46:02;;;;;;;6.20;4.70;;;;;;;22.80;56.74;98111.09;107002;1275;22520;-82
2023/06/11 09:48:31;;;;;;;9.60;5.20;;;;;;;22.26;56.45;98109.29;107111;1275;24261;-82
2023/06/11 09:51:01;;;;;;;11.00;5.80;;;;;;;22.01;58.13;98114.23;107021;1275;22535;-83
2023/06/11 09:53:31;;;;;;;12.20;5.60;;;;;;;22.15;58.61;98113.28;107086;1275;22530;-83
2023/06/11 09:56:05;;;;;;;9.00;5.30;;;;;;;22.26;58.00;98120.29;107028;1275;22548;-83
2023/06/11 09:58:39;;;;;;;8.10;5.30;;;;;;;22.42;58.44;98116.34;107047;1275;26597;-83
2023/06/11 10:01:07;;;;;;;7.30;4.90;;;;;;;22.69;59.00;98118.58;107037;1275;24343;-83
2023/06/11 10:03:35;;;;;;;6.40;4.70;;;;;;;22.93;58.34;98116.05;107099;1275;22534;-83
2023/06/11 10:06:07;;;;;;;8.60;5.00;;;;;;;23.18;58.01;98119.01;107275;1253;25491;-83
2023/06/11 10:08:36;;;;;;;7.50;5.50;;;;;;;23.42;57.57;98118.29;107306;1275;24285;-83
2023/06/11 10:11:04;;;;;;;6.90;5.40;;;;;;;23.60;56.39;98120.58;107642;1275;22520;-84
2023/06/11 10:13:34;;;;;;;7.00;4.80;;;;;;;23.44;55.54;98122.55;107289;1272;25221;-82
2023/06/11 10:16:07;;;;;;;6.70;4.90;;;;;;;23.19;56.01;98123.25;107782;1275;25321;-82
2023/06/11 10:18:35;;;;;;;9.80;4.70;;;;;;;23.03;56.24;98121.98;107075;1275;22515;-83
2023/06/11 10:21:04;;;;;;;7.00;4.80;;;;;;;22.74;54.13;98121.54;107029;1275;22532;-85
2023/06/11 10:23:41;;;;;;;9.60;4.50;;;;;;;22.37;54.18;98129.98;107128;1275;22510;-84
2023/06/11 10:26:09;;;;;;;7.60;5.20;;;;;;;22.09;54.92;98128.95;107090;1275;25322;-86
2023/06/11 10:28:48;;;;;;;7.60;5.30;;;;;;;21.93;55.22;98132.38;107017;1275;25221;-82
2023/06/11 10:31:35;;;;;;;9.70;4.70;;;;;;;22.06;56.30;98134.85;107066;1275;22528;-82
2023/06/11 10:34:04;;;;;;;6.30;5.00;;;;;;;22.42;55.56;98133.91;107064;1275;22666;-82
2023/06/11 10:36:39;;;;;;;5.90;4.60;;;;;;;22.62;55.57;98124.85;107148;1275;25220;-83
2023/06/11 10:39:22;;;;;;;7.60;4.20;;;;;;;22.84;55.73;98122.52;107044;1275;22710;-83
2023/06/11 10:42:01;;;;;;;10.50;5.00;;;;;;;23.18;55.49;98121.98;107031;1275;22808;-83
2023/06/11 10:44:30;;;;;;;8.40;4.90;;;;;;;23.27;54.48;98124.35;107058;1275;25339;-83
2023/06/11 10:47:00;;;;;;;9.10;4.90;;;;;;;23.05;53.75;98135.42;107007;1275;25372;-83
2023/06/11 10:49:29;;;;;;;5.60;4.60;;;;;;;22.72;54.15;98136.42;107036;1275;22569;-84
2023/06/11 10:52:00;;;;;;;8.10;5.20;;;;;;;22.46;54.66;98137.12;107063;1275;25322;-83
2023/06/11 10:54:34;;;;;;;7.00;5.30;;;;;;;22.30;54.93;98139.16;107106;1253;25531;-82
2023/06/11 10:57:02;;;;;;;7.70;5.00;;;;;;;22.36;54.66;98135.56;107098;1275;22520;-82
2023/06/11 10:59:31;;;;;;;8.80;4.90;;;;;;;22.32;54.68;98132.30;106995;1275;22531;-82
2023/06/11 11:02:00;;;;;;;7.00;4.60;;;;;;;22.32;54.76;98131.34;106985;1275;22536;-82
2023/06/11 11:04:28;;;;;;;8.30;4.70;;;;;;;22.54;54.87;98125.61;106963;1275;25488;-82
2023/06/11 11:07:08;;;;;;;8.20;4.80;;;;;;;22.90;54.71;98122.29;107027;1275;22521;-82
2023/06/11 11:09:37;;;;;;;6.20;4.90;;;;;;;23.01;53.82;98118.90;107018;1275;24230;-82
2023/06/11 11:12:06;;;;;;;5.30;4.40;;;;;;;22.81;53.08;98120.45;107037;1275;22923;-82
2023/06/11 11:14:34;;;;;;;7.10;3.80;;;;;;;22.81;53.21;98121.86;107010;1275;22539;-82
2023/06/11 11:17:02;;;;;;;6.60;4.80;;;;;;;23.10;53.58;98116.02;107006;1275;23164;-82
2023/06/11 11:19:32;;;;;;;6.10;4.60;;;;;;;23.47;53.37;98109.16;106985;1275;24170;-82
2023/06/11 11:22:00;;;;;;;9.20;4.80;;;;;;;23.83;52.45;98109.17;107012;1275;22535;-82
2023/06/11 11:24:33;;;;;;;5.00;4.00;;;;;;;24.14;52.57;98112.92;107051;1275;23918;-82
2023/06/11 11:27:06;;;;;;;7.90;5.00;;;;;;;24.50;52.41;98108.44;107067;1275;24241;-83
2023/06/11 11:29:36;;;;;;;6.90;4.60;;;;;;;24.75;50.75;98104.21;106997;1275;22528;-83
2023/06/11 11:32:05;;;;;;;7.10;3.80;;;;;;;24.90;49.88;98109.70;107031;1275;22590;-83